Athinai, Greece

4:45 PM EEST on September 01, 2014 (GMT +0300)
IATTICAI2 | Change Station
CLOSE
Current Station
Personal Weather Station
Location: Ilion, ILION
Elevation: 410 ft
Nearby Weather Stations

Elev 410 ft 38.04 °N, 23.70 °E | Updated 2 seconds ago

Partly Cloudy
Partly Cloudy
83.3 °F
Feels Like 85 °F
N
9.2
Wind Variable Wind from SSW
Gusts 9.2 mph

Today
High -- | Low -- °F
--% Chance of Precip.
Yesterday
High -- | Low -- °F
Precip. -- in
6:54 AM 7:55 PM
Waxing Crescent, 41% visible
Pressure 29.74 in
Visibility 6.2 miles
Clouds Few 2500 ft
Heat Index 85 °F
Dew Point 65 °F
Humidity 54%
Rainfall 0.00 in
Snow Depth Not available.
UV 5 out of 12
Pollen Not available.
Air Quality Not available.
Flu Activity Not available.
METAR LGEL 011320Z 18013KT 9999 FEW025 30/17 Q1007 NOSIG

More Conditions Fewer Conditions

Pressure 29.74 in
Visibility 6.2 miles
Clouds Few 2500 ft
Heat Index 85 °F
Dew Point 65 °F
Humidity 54%
Rainfall 0.00 in
Snow Depth Not available.
UV 5 out of 12
Pollen Not available.
Air Quality Not available.
Flu Activity Not available.
METAR LGEL 011320Z 18013KT 9999 FEW025 30/17 Q1007 NOSIG

More Conditions Fewer Conditions

10-Day Weather Forecast

Almanac

Astronomy

Sep. 01, 2014 Rise Set
Actual Time 6:54 AM EEST 7:55 PM EEST
Civil Twilight 6:27 AM EEST 8:22 PM EEST
Nautical Twilight 5:55 AM EEST 8:54 PM EEST
Astronomical Twilight 5:22 AM EEST 9:27 PM EEST
Moon 1:15 PM EEST 11:47 PM EEST
Length of Visible Light 13h 54m
Length of Day
13h 00m
Tomorrow will be 2m 21s shorter.
Waxing Crescent, 41% of the Moon is Illuminated
Today
Waxing Crescent
Sep 2
First Quarter
Sep 8
Full
Sep 15
Last Quarter
Sep 24
New

Yesterday's Extremes

Country Highs Country Lows

Community

WunderPhotos

Upload Photos

1,749,222 photos uploaded!

Nearby

Snow Depth

Not available.

Earthquake Activity

City Distance Mag. Time & Date
No recent earthquake activity has been reported nearby.
Minimum magnitude displayed is 2.5.

Coastal Water Temperatures

Place Temperature
No Stations Reporting

Nearby Weather Stations